Time;durP1;ratioP1;P1;durP2;ratioP2;P2;SDS_P1;SDS_P2;PMS_P1;PMS_P2;Temp;Humidity;BMP_temperature;BMP_pressure;BME280_temperature;BME280_humidity;BME280_pressure;Samples;Min_cycle;Max_cycle;Signal;HPM_P1;HPM_P2
2022/09/22 00:00:59;;;;;;;9.05;3.80;;;;;;;4.86;81.12;94416.50;5000923;28;20054;-67
2022/09/22 00:03:37;;;;;;;6.00;3.40;;;;;;;4.94;80.18;94415.47;4991021;28;20096;-67
2022/09/22 00:06:08;;;;;;;5.60;3.33;;;;;;;4.52;80.24;94419.09;5009882;28;20042;-66
2022/09/22 00:08:38;;;;;;;7.32;3.83;;;;;;;4.22;82.00;94415.50;5009430;28;20046;-67
2022/09/22 00:11:15;;;;;;;6.07;3.40;;;;;;;4.19;82.57;94415.09;5009706;28;20042;-67
2022/09/22 00:13:49;;;;;;;6.90;3.92;;;;;;;4.33;82.01;94413.78;5009233;28;20950;-67
2022/09/22 00:16:22;;;;;;;35.10;17.33;;;;;;;4.36;82.98;94413.03;5009088;28;20046;-66
2022/09/22 00:18:49;;;;;;;11.07;5.63;;;;;;;4.49;82.38;94424.50;5009911;28;20056;-65
2022/09/22 00:21:18;;;;;;;8.18;4.00;;;;;;;4.15;82.87;94419.69;5007876;28;20485;-64
2022/09/22 00:23:46;;;;;;;6.75;3.50;;;;;;;4.23;82.51;94420.59;5009786;28;20046;-64
2022/09/22 00:26:16;;;;;;;6.63;3.60;;;;;;;4.23;82.98;94417.09;5008991;28;20419;-62
2022/09/22 00:28:45;;;;;;;7.17;3.90;;;;;;;4.27;83.22;94413.28;5009896;28;20049;-64
2022/09/22 00:31:17;;;;;;;7.13;4.03;;;;;;;4.18;83.90;94410.00;5009352;28;20426;-63
2022/09/22 00:33:47;;;;;;;8.50;4.30;;;;;;;4.54;nan;94399.72;5023987;28;20102;-64
2022/09/22 00:36:15;;;;;;;8.10;4.10;;;;;;;4.77;82.05;94403.19;5009025;28;20045;-64
2022/09/22 00:38:43;;;;;;;9.55;4.00;;;;;;;4.83;81.35;94405.56;4996221;28;20050;-66
2022/09/22 00:41:22;;;;;;;6.87;3.70;;;;;;;5.15;80.93;94397.84;5009576;28;20054;-64
2022/09/22 00:44:10;;;;;;;6.30;3.50;;;;;;;5.24;80.36;94398.38;5008866;28;20711;-64
2022/09/22 00:46:40;;;;;;;6.63;3.70;;;;;;;5.64;77.42;94399.63;5009005;28;20054;-65
2022/09/22 00:49:07;;;;;;;5.70;3.30;;;;;;;5.17;78.44;94399.06;4989700;28;20407;-65
2022/09/22 00:51:38;;;;;;;8.65;3.92;;;;;;;5.23;79.09;94394.06;4989753;28;20039;-65
2022/09/22 00:54:08;;;;;;;8.73;3.43;;;;;;;5.35;78.91;94406.66;4990016;28;20050;-65
2022/09/22 00:56:52;;;;;;;6.18;3.20;;;;;;;5.16;78.96;94396.72;4992790;28;20052;-64
2022/09/22 00:59:22;;;;;;;7.10;3.30;;;;;;;4.72;79.33;94383.69;4991546;28;20361;-66
2022/09/22 01:01:50;;;;;;;6.63;3.70;;;;;;;4.83;81.57;94375.66;4993465;28;20415;-64
2022/09/22 01:04:17;;;;;;;6.45;3.42;;;;;;;4.23;81.50;94376.34;4992750;28;20466;-65
2022/09/22 01:06:44;;;;;;;5.70;3.30;;;;;;;3.83;83.41;94372.94;4993288;28;20050;-64
2022/09/22 01:09:12;;;;;;;17.67;9.23;;;;;;;4.18;82.98;94375.47;4993164;28;20055;-64
2022/09/22 01:11:40;;;;;;;7.82;4.13;;;;;;;3.94;83.03;94375.84;4992200;28;20139;-66
2022/09/22 01:14:31;;;;;;;7.40;3.80;;;;;;;3.62;83.37;94370.63;4992933;28;20088;-64
2022/09/22 01:17:17;;;;;;;7.20;3.85;;;;;;;4.12;83.37;94371.50;4992059;28;20237;-64
2022/09/22 01:20:08;;;;;;;6.87;4.00;;;;;;;4.08;82.68;94364.44;4992181;28;20407;-65
2022/09/22 01:23:08;;;;;;;7.10;4.40;;;;;;;3.96;82.92;94368.13;4992791;28;20050;-64
2022/09/22 01:26:13;;;;;;;8.50;5.05;;;;;;;3.63;85.23;94360.56;4992549;28;20599;-65
2022/09/22 01:28:59;;;;;;;8.57;4.45;;;;;;;3.90;83.54;94369.56;4981819;28;20719;-66
2022/09/22 01:31:35;;;;;;;7.85;4.25;;;;;;;3.97;83.33;94364.28;4986915;28;20104;-65
2022/09/22 01:34:08;;;;;;;9.53;5.13;;;;;;;3.73;84.75;94365.41;4984690;28;20093;-64
2022/09/22 01:36:51;;;;;;;9.25;4.32;;;;;;;3.70;84.82;94360.69;4992434;28;20046;-65
2022/09/22 01:39:26;;;;;;;10.35;4.97;;;;;;;3.68;84.84;94357.56;4991951;28;20112;-65
2022/09/22 01:41:59;;;;;;;8.38;4.70;;;;;;;3.66;84.70;94349.75;4992964;28;20415;-64
2022/09/22 01:44:48;;;;;;;9.43;5.28;;;;;;;3.64;84.70;94351.28;4992211;28;20541;-64
2022/09/22 01:47:22;;;;;;;8.03;4.30;;;;;;;3.72;84.17;94348.34;4991537;28;20188;-64
2022/09/22 01:49:58;;;;;;;8.45;4.68;;;;;;;3.82;83.66;94346.16;4992672;28;20052;-65
2022/09/22 01:52:28;;;;;;;9.38;4.80;;;;;;;3.86;84.43;94331.50;4990792;28;20052;-64
2022/09/22 01:55:01;;;;;;;6.68;4.05;;;;;;;4.06;82.34;94343.06;4992670;28;20483;-64
2022/09/22 01:57:53;;;;;;;7.70;4.43;;;;;;;4.05;82.93;94329.88;4991774;28;20371;-65
2022/09/22 02:00:22;;;;;;;8.93;3.93;;;;;;;4.14;83.48;94341.25;4991771;28;20057;-65
2022/09/22 02:02:57;;;;;;;6.43;3.80;;;;;;;3.93;83.18;94341.72;4992276;28;20416;-66
2022/09/22 02:05:31;;;;;;;7.88;4.95;;;;;;;4.22;81.13;94340.22;4991298;28;20100;-64
2022/09/22 02:08:00;;;;;;;7.75;4.20;;;;;;;4.18;81.36;94342.09;4991011;28;20407;-66
2022/09/22 02:10:34;;;;;;;8.15;4.80;;;;;;;3.74;81.64;94343.34;4991415;28;20054;-66
2022/09/22 02:13:00;;;;;;;8.10;4.33;;;;;;;3.44;83.52;94345.91;4992284;28;20484;-63
2022/09/22 02:18:28;;;;;;;8.02;4.18;;;;;;;3.46;85.18;94340.09;4991191;28;20051;-64
2022/09/22 02:20:55;;;;;;;8.55;4.60;;;;;;;3.62;83.86;94335.34;4992111;28;20073;-64
2022/09/22 02:23:21;;;;;;;8.23;4.50;;;;;;;3.56;83.64;94342.22;4991135;28;20042;-64
2022/09/22 02:25:49;;;;;;;7.00;4.13;;;;;;;3.76;83.65;94337.53;4991803;28;20531;-64
2022/09/22 02:28:19;;;;;;;7.03;4.10;;;;;;;3.75;83.08;94344.91;4991033;28;20077;-64
2022/09/22 02:30:48;;;;;;;8.18;3.88;;;;;;;3.52;83.50;94346.78;4991956;28;20046;-64
2022/09/22 02:33:38;;;;;;;6.55;3.88;;;;;;;3.22;84.75;94352.03;4991508;28;20077;-64
2022/09/22 02:36:42;;;;;;;7.93;4.45;;;;;;;3.35;84.89;94351.53;4991417;28;20047;-66
2022/09/22 02:39:27;;;;;;;8.50;4.00;;;;;;;3.43;84.74;94357.09;4990771;28;20404;-64
2022/09/22 02:41:56;;;;;;;6.47;3.83;;;;;;;3.41;85.08;94343.88;4990736;28;20103;-64
2022/09/22 02:44:46;;;;;;;7.07;4.20;;;;;;;3.51;83.96;94337.88;4990751;28;20048;-64
2022/09/22 02:47:19;;;;;;;6.78;3.88;;;;;;;3.48;83.78;94341.31;4989919;28;20050;-67
2022/09/22 02:49:48;;;;;;;7.18;4.05;;;;;;;3.43;83.78;94349.75;4991501;28;20054;-65
2022/09/22 02:52:18;;;;;;;7.47;3.80;;;;;;;3.11;85.42;94339.06;4991682;28;20047;-64
2022/09/22 02:54:45;;;;;;;7.32;3.58;;;;;;;3.31;84.91;94342.53;4991597;28;20038;-64
2022/09/22 02:57:11;;;;;;;6.55;3.50;;;;;;;3.40;84.90;94336.88;4990819;28;20046;-64
2022/09/22 02:59:38;;;;;;;7.15;3.90;;;;;;;3.30;83.52;94345.59;4988971;28;21611;-64
2022/09/22 03:02:04;;;;;;;6.28;3.67;;;;;;;3.13;84.24;94339.47;4991526;28;20038;-64
2022/09/22 03:04:31;;;;;;;7.30;3.93;;;;;;;3.16;85.08;94338.00;4990488;28;20120;-66
2022/09/22 03:06:58;;;;;;;7.32;3.95;;;;;;;3.06;85.54;94346.69;4990943;28;20046;-63
2022/09/22 03:09:24;;;;;;;7.13;4.68;;;;;;;3.10;86.25;94336.69;4990163;28;20557;-64
2022/09/22 03:11:51;;;;;;;7.55;4.50;;;;;;;3.06;86.30;94350.19;4991128;28;20115;-63
2022/09/22 03:14:18;;;;;;;7.47;4.55;;;;;;;2.85;86.89;94345.13;4990254;28;20052;-64
2022/09/22 03:16:44;;;;;;;9.83;4.90;;;;;;;2.89;87.20;94348.69;4990402;28;20043;-65
2022/09/22 03:19:11;;;;;;;8.80;4.82;;;;;;;2.92;87.39;94353.41;4990675;28;20447;-64
2022/09/22 03:21:38;;;;;;;8.02;4.80;;;;;;;2.89;86.96;94354.09;4988699;28;20054;-65
2022/09/22 03:24:04;;;;;;;8.00;4.53;;;;;;;2.94;86.81;94347.63;4989711;28;20061;-64
2022/09/22 03:26:32;;;;;;;9.13;4.90;;;;;;;2.86;87.83;94354.81;4990236;28;20060;-65
2022/09/22 03:28:59;;;;;;;7.67;4.63;;;;;;;2.92;88.12;94350.69;4990727;28;20046;-66
2022/09/22 03:31:25;;;;;;;9.65;4.50;;;;;;;2.86;87.42;94354.03;4990190;28;20050;-64
2022/09/22 03:33:52;;;;;;;8.40;4.90;;;;;;;2.92;87.64;94339.84;4990483;28;20396;-64
2022/09/22 03:36:22;;;;;;;7.63;4.65;;;;;;;3.00;87.50;94347.00;4989619;28;20419;-63
2022/09/22 03:38:49;;;;;;;6.70;4.07;;;;;;;2.77;86.66;94346.88;4990715;28;20661;-64
2022/09/22 03:41:16;;;;;;;7.77;4.13;;;;;;;2.83;87.71;94341.19;4989763;28;20580;-64
2022/09/22 03:43:43;;;;;;;9.90;4.72;;;;;;;2.82;87.31;94343.13;4990547;28;20503;-66
2022/09/22 03:46:10;;;;;;;8.88;5.78;;;;;;;2.88;86.60;94343.59;4988919;28;20605;-65
2022/09/22 03:48:36;;;;;;;8.15;4.82;;;;;;;2.45;87.72;94343.47;4988223;28;20050;-64
2022/09/22 03:51:11;;;;;;;8.20;4.70;;;;;;;2.59;87.56;94341.06;4991055;28;20046;-64
2022/09/22 03:53:38;;;;;;;6.10;3.47;;;;;;;2.76;88.09;94342.63;4989905;28;21053;-64
2022/09/22 03:56:10;;;;;;;9.15;4.03;;;;;;;2.83;87.70;94349.31;4988781;28;20042;-64
2022/09/22 03:58:37;;;;;;;7.60;3.47;;;;;;;2.89;88.19;94347.91;4989939;28;20057;-64
2022/09/22 04:01:06;;;;;;;7.65;3.83;;;;;;;2.94;88.27;94343.00;4990377;28;20054;-65
2022/09/22 04:03:33;;;;;;;9.50;4.88;;;;;;;2.74;87.24;94347.59;4989509;28;20116;-64
2022/09/22 04:06:00;;;;;;;9.20;5.47;;;;;;;2.52;88.47;94351.78;4990274;28;20197;-64
2022/09/22 04:08:27;;;;;;;6.35;3.95;;;;;;;2.66;88.59;94348.59;4989649;28;20046;-64
2022/09/22 04:10:54;;;;;;;8.93;4.70;;;;;;;2.78;88.50;94351.19;4990080;28;20054;-64
2022/09/22 04:13:20;;;;;;;7.22;4.20;;;;;;;2.78;87.29;94350.41;4989561;28;20038;-63
2022/09/22 04:15:47;;;;;;;7.43;4.10;;;;;;;2.77;88.13;94349.59;4972734;28;20042;-63
2022/09/22 04:18:14;;;;;;;8.67;3.97;;;;;;;2.72;87.74;94347.19;4989299;28;20435;-65
2022/09/22 04:20:44;;;;;;;17.20;8.80;;;;;;;2.80;87.45;94343.47;4978283;28;20420;-66
2022/09/22 04:23:15;;;;;;;12.30;7.00;;;;;;;2.72;87.14;94351.81;4988954;28;20054;-70
2022/09/22 04:25:41;;;;;;;11.43;6.45;;;;;;;2.76;86.90;94348.03;4989158;28;21408;-64
2022/09/22 04:28:08;;;;;;;12.02;6.60;;;;;;;2.72;86.63;94344.47;4990641;28;20064;-64
2022/09/22 04:30:35;;;;;;;15.53;7.90;;;;;;;2.70;86.02;94338.63;4993015;28;20042;-63
2022/09/22 04:33:02;;;;;;;15.20;9.38;;;;;;;2.41;86.83;94342.63;4993752;28;20047;-64
2022/09/22 04:35:29;;;;;;;18.65;10.65;;;;;;;2.51;86.63;94344.78;4992894;28;20418;-66
2022/09/22 04:37:57;;;;;;;19.83;10.82;;;;;;;2.56;86.81;94341.03;4993579;28;20549;-64
2022/09/22 04:40:24;;;;;;;17.20;9.98;;;;;;;2.53;86.75;94339.78;4991748;28;20061;-64
2022/09/22 04:42:50;;;;;;;12.73;7.03;;;;;;;2.60;87.27;94337.25;4993596;28;20054;-64
2022/09/22 04:45:17;;;;;;;15.60;8.75;;;;;;;2.45;86.58;94345.41;4992444;28;20696;-64
2022/09/22 04:47:49;;;;;;;16.08;9.18;;;;;;;2.55;86.67;94342.94;4991229;28;20064;-66
2022/09/22 04:50:17;;;;;;;14.57;8.68;;;;;;;2.53;86.61;94349.84;4993511;28;20504;-64
2022/09/22 04:52:47;;;;;;;14.57;8.98;;;;;;;2.50;87.12;94355.97;4993931;28;20064;-63
2022/09/22 04:55:14;;;;;;;13.63;7.60;;;;;;;2.31;86.70;94356.69;4992790;28;20042;-64
2022/09/22 04:57:42;;;;;;;12.40;7.15;;;;;;;2.33;86.51;94354.44;4993133;28;20050;-64
2022/09/22 05:00:09;;;;;;;14.40;8.90;;;;;;;2.30;88.18;94360.56;4993266;28;20046;-64
2022/09/22 05:02:35;;;;;;;12.85;7.97;;;;;;;2.22;86.98;94362.31;4992392;28;20095;-63
2022/09/22 05:05:04;;;;;;;27.00;8.77;;;;;;;2.36;87.03;94364.56;4993107;28;20048;-65
2022/09/22 05:07:31;;;;;;;19.70;9.73;;;;;;;2.29;87.58;94362.47;4991194;28;20046;-64
2022/09/22 05:09:58;;;;;;;13.45;6.55;;;;;;;2.13;86.89;94353.56;4992773;28;20065;-63
2022/09/22 05:12:25;;;;;;;14.68;7.55;;;;;;;2.14;87.20;94358.66;4992232;28;20492;-63
2022/09/22 05:14:52;;;;;;;14.65;8.05;;;;;;;2.24;86.92;94370.09;4993087;28;20487;-63
2022/09/22 05:17:19;;;;;;;13.52;7.75;;;;;;;2.17;86.45;94366.09;4992055;28;20058;-64
2022/09/22 05:19:46;;;;;;;18.07;8.50;;;;;;;2.16;87.43;94361.00;4993189;28;20053;-64
2022/09/22 05:22:12;;;;;;;28.48;11.15;;;;;;;2.15;87.76;94367.53;4991145;28;20047;-61
2022/09/22 05:24:41;;;;;;;34.80;13.98;;;;;;;2.34;86.88;94364.91;4992737;28;20042;-64
2022/09/22 05:27:08;;;;;;;27.90;12.05;;;;;;;2.47;86.36;94359.38;4992386;28;20056;-64
2022/09/22 05:29:34;;;;;;;22.67;10.35;;;;;;;2.45;87.78;94367.09;4991989;28;20042;-64
2022/09/22 05:32:01;;;;;;;24.37;12.27;;;;;;;2.57;86.63;94366.97;4992566;28;20100;-64
2022/09/22 05:34:28;;;;;;;22.08;10.85;;;;;;;2.64;85.99;94375.25;4991671;28;20065;-65
2022/09/22 05:36:54;;;;;;;25.30;12.43;;;;;;;2.54;86.69;94375.81;4992297;28;20046;-64
2022/09/22 05:39:21;;;;;;;33.20;15.75;;;;;;;2.64;85.79;94377.19;4991444;28;20054;-64
2022/09/22 05:41:48;;;;;;;19.40;9.98;;;;;;;2.64;86.86;94375.25;4991676;28;20118;-64
2022/09/22 05:44:15;;;;;;;20.70;9.93;;;;;;;2.78;85.97;94370.16;4992029;28;20050;-67
2022/09/22 05:46:42;;;;;;;20.40;10.20;;;;;;;2.80;84.87;94369.81;4992166;28;20047;-64
2022/09/22 05:49:09;;;;;;;33.67;14.75;;;;;;;2.73;85.00;94359.56;4992420;28;20462;-65
2022/09/22 05:51:36;;;;;;;29.33;13.60;;;;;;;2.72;85.36;94368.84;4991699;28;20048;-64
2022/09/22 05:54:03;;;;;;;23.52;11.10;;;;;;;2.76;85.09;94371.66;4991958;28;20050;-64
2022/09/22 05:56:30;;;;;;;17.73;8.47;;;;;;;2.75;85.21;94376.25;4991159;28;20051;-63
2022/09/22 05:58:57;;;;;;;18.80;7.95;;;;;;;2.92;84.24;94368.91;4992289;28;20047;-64
2022/09/22 06:01:24;;;;;;;16.23;7.78;;;;;;;2.84;85.14;94370.66;4991212;28;20479;-64
2022/09/22 06:03:50;;;;;;;12.45;6.32;;;;;;;3.03;85.31;94369.09;4992107;28;20385;-64
2022/09/22 06:06:17;;;;;;;19.40;8.88;;;;;;;2.35;85.52;94368.41;4991404;28;20050;-67
2022/09/22 06:08:44;;;;;;;18.80;8.87;;;;;;;2.68;85.57;94373.41;4990877;28;20089;-65
2022/09/22 06:11:14;;;;;;;34.47;18.30;;;;;;;2.80;84.46;94370.59;4992293;28;20146;-66
2022/09/22 06:13:42;;;;;;;24.42;13.80;;;;;;;2.97;84.54;94369.38;4988108;28;20056;-65
2022/09/22 06:16:12;;;;;;;23.80;11.65;;;;;;;2.70;83.93;94360.28;4991172;28;20050;-65
2022/09/22 06:18:38;;;;;;;28.38;13.13;;;;;;;2.84;84.74;94364.44;4989836;28;20838;-66
2022/09/22 06:21:06;;;;;;;15.73;8.87;;;;;;;3.02;84.04;94364.81;4991120;28;20042;-66
2022/09/22 06:23:33;;;;;;;16.55;8.43;;;;;;;3.22;84.16;94352.03;4989200;28;20494;-66
2022/09/22 06:26:03;;;;;;;24.73;12.15;;;;;;;3.21;84.02;94353.97;4990829;28;20411;-66
2022/09/22 06:28:31;;;;;;;22.10;10.75;;;;;;;3.45;83.99;94360.25;4990032;28;20402;-66
2022/09/22 06:30:59;;;;;;;15.95;8.70;;;;;;;3.87;82.50;94351.31;4991059;28;20034;-65
2022/09/22 06:33:27;;;;;;;18.40;9.60;;;;;;;3.54;83.09;94352.66;4987588;28;20056;-66
2022/09/22 06:35:53;;;;;;;18.27;10.23;;;;;;;3.77;82.71;94350.75;4991033;28;20042;-65
2022/09/22 06:38:20;;;;;;;21.92;12.90;;;;;;;3.63;84.00;94355.94;4990526;28;20061;-67
2022/09/22 06:40:47;;;;;;;21.33;12.23;;;;;;;3.84;83.40;94352.78;4990806;28;20392;-65
2022/09/22 06:43:22;;;;;;;19.05;10.75;;;;;;;3.89;82.40;94349.78;4990433;28;20492;-66
2022/09/22 06:45:50;;;;;;;18.57;10.03;;;;;;;4.09;82.96;94347.78;4991373;28;20039;-66
2022/09/22 06:48:19;;;;;;;16.17;8.80;;;;;;;3.78;83.72;94362.38;4990777;28;20054;-66
2022/09/22 06:50:50;;;;;;;15.38;9.10;;;;;;;4.23;82.35;94349.19;4989193;28;20050;-66
2022/09/22 06:53:20;;;;;;;17.90;9.95;;;;;;;4.17;83.14;94354.13;4989303;28;20050;-65
2022/09/22 06:55:51;;;;;;;17.38;10.27;;;;;;;4.65;81.98;94353.66;4989957;28;20051;-65
2022/09/22 06:58:21;;;;;;;17.90;10.30;;;;;;;4.80;81.18;94350.78;4990661;28;20058;-65
2022/09/22 07:00:48;;;;;;;15.10;8.65;;;;;;;4.92;80.92;94354.44;4991019;28;20046;-65
2022/09/22 07:03:21;;;;;;;15.30;8.45;;;;;;;5.28;79.58;94358.38;4990546;28;20463;-66
2022/09/22 07:05:52;;;;;;;15.30;9.38;;;;;;;5.53;79.29;94345.06;4991345;28;20046;-67
2022/09/22 07:08:21;;;;;;;14.55;8.35;;;;;;;5.74;79.18;94349.16;4988716;28;20076;-66
2022/09/22 07:10:56;;;;;;;13.53;7.27;;;;;;;5.95;78.94;94346.66;4991677;28;20046;-65
2022/09/22 07:13:24;;;;;;;12.32;6.18;;;;;;;7.06;75.85;94356.81;4987541;28;20100;-65
2022/09/22 07:15:51;;;;;;;8.77;5.00;;;;;;;9.51;65.75;94351.09;4991186;28;20042;-67
2022/09/22 07:18:18;;;;;;;8.07;4.70;;;;;;;14.12;53.90;94344.03;4990404;28;20065;-64
2022/09/22 07:20:45;;;;;;;7.05;3.70;;;;;;;16.72;44.78;94350.56;4990567;28;20104;-65
2022/09/22 07:23:19;;;;;;;5.57;3.40;;;;;;;18.32;40.81;94332.31;4990710;28;20061;-64
2022/09/22 07:25:55;;;;;;;5.75;2.80;;;;;;;19.46;37.61;94336.50;4988760;28;20462;-65
2022/09/22 07:28:27;;;;;;;3.30;2.00;;;;;;;20.60;33.25;94332.63;4990117;28;20046;-65
2022/09/22 07:30:58;;;;;;;2.88;1.75;;;;;;;20.44;34.05;94325.38;4990994;28;20419;-64
2022/09/22 07:33:25;;;;;;;2.65;1.60;;;;;;;20.39;35.08;94335.16;4989927;28;20054;-64
2022/09/22 07:36:04;;;;;;;3.70;1.83;;;;;;;20.52;33.88;94337.75;4990605;28;20046;-64
2022/09/22 07:38:35;;;;;;;3.13;1.58;;;;;;;21.78;31.55;94337.19;4990045;28;20471;-65
2022/09/22 07:41:05;;;;;;;4.05;1.90;;;;;;;20.92;30.60;94340.22;4990735;28;20050;-66
2022/09/22 07:43:32;;;;;;;4.78;2.00;;;;;;;21.60;30.88;94336.09;4989650;28;20050;-65
2022/09/22 07:45:59;;;;;;;3.65;1.55;;;;;;;19.82;32.55;94335.75;4990472;28;20046;-65
2022/09/22 07:48:40;;;;;;;3.53;1.70;;;;;;;22.05;29.75;94330.56;4989542;28;20062;-65
2022/09/22 07:51:20;;;;;;;3.13;1.48;;;;;;;21.50;29.17;94324.22;4990750;28;20046;-65
2022/09/22 07:53:53;;;;;;;3.45;1.70;;;;;;;20.80;31.58;94326.50;4989574;28;20123;-65
2022/09/22 07:56:22;;;;;;;4.00;1.58;;;;;;;21.14;30.21;94328.78;4990055;28;20057;-65
2022/09/22 07:58:51;;;;;;;2.92;1.50;;;;;;;23.32;27.14;94318.38;4990495;28;20042;-65
2022/09/22 08:01:21;;;;;;;3.63;1.50;;;;;;;23.83;27.65;94321.03;4989612;28;20042;-65
2022/09/22 08:03:49;;;;;;;3.92;1.60;;;;;;;25.30;25.43;94318.19;4992111;28;20043;-66
2022/09/22 08:06:19;;;;;;;3.00;1.63;;;;;;;24.69;25.77;94318.53;4994149;28;20050;-64
2022/09/22 08:08:54;;;;;;;3.97;1.40;;;;;;;22.15;28.00;94323.63;4988154;28;20056;-67
2022/09/22 08:11:22;;;;;;;3.10;1.50;;;;;;;21.13;30.42;94334.84;4993899;28;20442;-66
2022/09/22 08:13:58;;;;;;;3.30;1.67;;;;;;;24.27;26.51;94320.69;4994140;28;20120;-66
2022/09/22 08:16:27;;;;;;;2.88;1.30;;;;;;;23.11;26.86;94314.75;4993502;28;20042;-65
2022/09/22 08:18:56;;;;;;;4.25;1.30;;;;;;;20.04;31.07;94326.41;4994244;28;20050;-66
2022/09/22 08:21:29;;;;;;;3.28;1.23;;;;;;;22.41;28.58;94318.25;4993669;28;20487;-66
2022/09/22 08:23:56;;;;;;;2.40;1.35;;;;;;;19.40;33.38;94328.00;4994186;28;20506;-66
2022/09/22 08:26:23;;;;;;;2.20;1.23;;;;;;;15.65;39.61;94333.13;4993749;28;20042;-66
2022/09/22 08:28:52;;;;;;;4.10;1.50;;;;;;;21.61;30.44;94329.28;4994044;28;20492;-65
2022/09/22 08:31:19;;;;;;;3.28;1.60;;;;;;;21.14;30.37;94328.78;4993640;28;20431;-66
2022/09/22 08:33:48;;;;;;;3.72;1.50;;;;;;;14.63;41.00;94338.16;4993654;28;20044;-65
2022/09/22 08:36:15;;;;;;;2.78;1.33;;;;;;;17.29;37.01;94334.06;4993430;28;20061;-64
2022/09/22 08:38:44;;;;;;;2.60;1.27;;;;;;;21.17;30.36;94327.06;4993447;28;20070;-66
2022/09/22 08:41:26;;;;;;;2.63;1.15;;;;;;;21.39;30.56;94326.78;4993874;28;20515;-66
2022/09/22 08:43:57;;;;;;;3.28;1.15;;;;;;;22.58;28.31;94318.56;4981151;28;20464;-66
2022/09/22 08:46:32;;;;;;;2.58;1.20;;;;;;;20.67;32.02;94321.16;4993565;28;20050;-66
2022/09/22 08:52:37;;;;;;;3.77;1.10;;;;;;;22.48;28.35;94328.31;4991595;28;20734;-66
2022/09/22 08:55:08;;;;;;;2.60;1.23;;;;;;;22.16;29.17;94313.25;4993478;28;20098;-66
2022/09/22 08:57:55;;;;;;;2.47;1.40;;;;;;;24.36;26.53;94307.78;4992668;28;20065;-66
2022/09/22 09:00:32;;;;;;;2.45;1.40;;;;;;;21.58;28.83;94307.88;4992834;28;20042;-66
2022/09/22 09:03:21;;;;;;;4.97;3.00;;;;;;;22.61;28.22;94314.00;4992024;28;20042;-67
2022/09/22 09:06:03;;;;;;;2.70;1.20;;;;;;;23.86;26.50;94303.97;4992564;28;21514;-67
2022/09/22 09:08:44;;;;;;;2.67;1.20;;;;;;;24.42;26.68;94306.53;4992865;28;20446;-67
2022/09/22 09:11:49;;;;;;;2.80;1.20;;;;;;;23.94;26.96;94307.13;4993093;28;20042;-66
2022/09/22 09:14:39;;;;;;;2.85;0.90;;;;;;;26.96;23.36;94298.31;4990560;28;20270;-66
2022/09/22 09:17:14;;;;;;;2.45;1.20;;;;;;;25.34;24.53;94303.13;4981216;28;20049;-66
2022/09/22 09:19:45;;;;;;;3.70;1.10;;;;;;;19.96;32.47;94309.28;4991455;28;20706;-66
2022/09/22 09:22:27;;;;;;;2.90;1.00;;;;;;;23.92;27.61;94302.03;4993439;28;20042;-66
2022/09/22 09:24:56;;;;;;;3.85;1.20;;;;;;;27.32;23.02;94304.94;4992272;28;20688;-66
2022/09/22 09:27:48;;;;;;;2.67;1.20;;;;;;;25.12;25.27;94301.72;4991968;28;20116;-66
2022/09/22 09:30:18;;;;;;;2.95;0.98;;;;;;;23.70;26.85;94296.13;4992601;28;20046;-65
2022/09/22 09:32:55;;;;;;;3.03;1.20;;;;;;;23.56;27.32;94302.59;4992649;28;20076;-67
2022/09/22 09:35:31;;;;;;;3.15;0.93;;;;;;;24.29;27.01;94309.75;4989304;28;20054;-67
2022/09/22 09:38:00;;;;;;;3.55;1.35;;;;;;;23.30;26.91;94314.50;4993195;28;20434;-66
2022/09/22 09:40:27;;;;;;;7.65;1.50;;;;;;;21.90;29.30;94308.22;4992243;28;20046;-66
2022/09/22 09:43:00;;;;;;;2.25;1.10;;;;;;;23.21;27.29;94303.44;4993013;28;20042;-66
2022/09/22 09:46:07;;;;;;;2.83;1.10;;;;;;;21.99;28.77;94302.53;4992044;28;20069;-66
2022/09/22 09:48:51;;;;;;;2.85;1.10;;;;;;;20.86;30.03;94310.66;4991770;28;20054;-66
2022/09/22 09:51:18;;;;;;;3.03;1.10;;;;;;;20.17;30.49;94304.72;4992096;28;20088;-65
2022/09/22 09:53:46;;;;;;;2.60;1.20;;;;;;;19.61;33.38;94304.00;4992168;28;20042;-65
2022/09/22 09:56:22;;;;;;;3.35;1.20;;;;;;;20.48;30.44;94303.69;4992453;28;20105;-62
2022/09/22 10:01:49;;;;;;;2.47;1.02;;;;;;;18.87;32.38;94306.72;4991342;28;20054;-66
2022/09/22 10:04:34;;;;;;;2.97;1.40;;;;;;;20.15;31.82;94301.63;4992154;28;20046;-65
2022/09/22 10:07:15;;;;;;;3.42;1.90;;;;;;;20.33;29.61;94289.66;4992363;28;20040;-65
2022/09/22 10:09:42;;;;;;;2.60;1.20;;;;;;;20.05;30.00;94295.31;4991098;28;20681;-65
2022/09/22 10:12:23;;;;;;;2.20;1.00;;;;;;;19.62;32.00;94285.28;4992106;28;20116;-65
2022/09/22 10:14:53;;;;;;;3.92;1.30;;;;;;;21.25;29.11;94283.59;4990989;28;21753;-66
2022/09/22 10:17:25;;;;;;;2.17;1.10;;;;;;;21.18;29.10;94288.78;4991371;28;20054;-67
2022/09/22 10:20:12;;;;;;;2.50;1.00;;;;;;;22.40;28.51;94283.19;4991777;28;20050;-66
2022/09/22 10:22:39;;;;;;;2.05;1.00;;;;;;;22.04;27.72;94273.91;4990768;28;20886;-66
2022/09/22 10:25:18;;;;;;;2.03;1.00;;;;;;;22.19;28.05;94275.94;4991899;28;20203;-67
2022/09/22 10:28:08;;;;;;;2.70;1.10;;;;;;;20.43;30.15;94290.41;4990801;28;20316;-66
2022/09/22 10:30:39;;;;;;;2.35;1.10;;;;;;;20.91;30.60;94290.50;4991603;28;20046;-66
2022/09/22 10:33:20;;;;;;;2.30;1.00;;;;;;;20.64;30.82;94281.00;4991741;28;20038;-67
2022/09/22 10:35:54;;;;;;;2.47;1.20;;;;;;;19.55;31.44;94286.38;4990785;28;20710;-66
2022/09/22 10:38:23;;;;;;;2.77;1.10;;;;;;;19.96;31.69;94286.97;4989488;28;20427;-66
2022/09/22 10:41:06;;;;;;;2.92;1.35;;;;;;;19.48;32.40;94276.34;4992075;28;20050;-67
2022/09/22 10:43:39;;;;;;;2.42;1.05;;;;;;;19.95;32.46;94291.00;4977762;28;20096;-67
2022/09/22 10:46:34;;;;;;;2.40;1.33;;;;;;;20.31;30.73;94290.13;4991531;28;20046;-66
2022/09/22 10:49:15;;;;;;;2.97;1.10;;;;;;;21.23;29.74;94286.09;4990554;28;20277;-66
2022/09/22 10:52:01;;;;;;;3.10;1.43;;;;;;;20.37;31.94;94283.91;4990246;28;20129;-66
2022/09/22 10:54:55;;;;;;;3.67;1.40;;;;;;;19.36;33.08;94277.28;4991148;28;20050;-66
2022/09/22 10:57:43;;;;;;;3.05;1.38;;;;;;;22.40;29.37;94276.81;4990986;28;20060;-66
2022/09/22 11:00:16;;;;;;;2.80;1.38;;;;;;;23.59;28.28;94274.38;4991377;28;20068;-67
2022/09/22 11:03:21;;;;;;;3.50;1.40;;;;;;;22.71;28.84;94270.66;4990161;28;21573;-67
2022/09/22 11:12:18;;;;;;;2.60;1.17;;;;;;;22.86;27.73;94268.59;4990016;28;21531;-66
2022/09/22 11:15:17;;;;;;;2.30;1.10;;;;;;;21.65;28.55;94273.22;4990133;28;20607;-66
2022/09/22 11:17:53;;;;;;;3.03;1.25;;;;;;;21.59;29.38;94275.13;4989837;28;20709;-66
2022/09/22 11:20:43;;;;;;;3.43;2.20;;;;;;;21.98;29.52;94266.69;4990655;28;20050;-66
2022/09/22 11:23:32;;;;;;;2.88;1.40;;;;;;;21.08;30.75;94268.53;4990945;28;20081;-66
2022/09/22 11:26:29;;;;;;;2.88;1.40;;;;;;;18.94;34.84;94261.94;4988359;28;20376;-66
2022/09/22 11:29:11;;;;;;;3.67;1.40;;;;;;;19.23;34.29;94262.75;4989753;28;20551;-66
2022/09/22 11:31:47;;;;;;;4.18;1.35;;;;;;;18.32;35.14;94259.31;4990027;28;20042;-65
2022/09/22 11:34:42;;;;;;;3.93;1.40;;;;;;;18.77;34.90;94263.44;4990330;28;20421;-63
2022/09/22 11:37:42;;;;;;;4.10;1.98;;;;;;;18.40;36.42;94257.78;4981054;28;20419;-65
2022/09/22 11:40:36;;;;;;;6.05;2.20;;;;;;;18.17;36.64;94251.53;4989863;28;21827;-65
2022/09/22 11:43:19;;;;;;;5.20;1.65;;;;;;;18.59;36.75;94253.03;4989985;28;20435;-66
2022/09/22 11:45:55;;;;;;;4.15;1.70;;;;;;;18.62;36.23;94252.13;4989524;28;20178;-65
2022/09/22 11:48:49;;;;;;;3.57;1.40;;;;;;;17.90;37.74;94254.94;4988631;28;20057;-65
2022/09/22 11:51:51;;;;;;;3.33;1.50;;;;;;;17.48;38.53;94251.75;4989890;28;20042;-65
2022/09/22 11:55:02;;;;;;;4.70;1.60;;;;;;;17.85;38.79;94243.66;4988486;28;20057;-67
2022/09/22 11:57:35;;;;;;;5.90;2.08;;;;;;;18.38;37.53;94240.78;4973041;28;20407;-65
2022/09/22 12:00:10;;;;;;;4.65;1.58;;;;;;;17.21;39.12;94238.47;4990260;28;20480;-66
2022/09/22 12:02:47;;;;;;;3.27;1.43;;;;;;;17.42;38.49;94243.22;4989908;28;20065;-65
2022/09/22 12:05:41;;;;;;;4.63;1.60;;;;;;;15.30;42.24;94247.19;4989982;28;20046;-65
2022/09/22 12:08:19;;;;;;;3.42;1.67;;;;;;;14.72;44.13;94238.91;4990564;28;20431;-65
2022/09/22 12:10:48;;;;;;;3.10;1.70;;;;;;;14.92;43.27;94241.53;4989460;28;20646;-65
2022/09/22 12:13:21;;;;;;;3.40;1.58;;;;;;;15.03;42.68;94244.00;4990289;28;20046;-63
2022/09/22 12:16:04;;;;;;;3.10;1.60;;;;;;;16.34;41.30;94226.72;4990126;28;20042;-65
2022/09/22 12:18:45;;;;;;;3.33;1.30;;;;;;;16.48;40.10;94223.47;4989863;28;20050;-65
2022/09/22 12:21:36;;;;;;;3.10;1.55;;;;;;;16.99;40.02;94221.81;4990183;28;20056;-65